Airport View

Enter AWOS ICAO identifier for current METAR.

ex. KFNL

KJNX 080815Z AUTO 22003KT 10SM CLR 19/15 A2971 RMK AO2

8 Apr 2020 08:21

Frequency: 120.225

Phone: 919-934-3851

Other Area AWOS: KHRJ - KGWW - KGSB - KRDU

TAF KGSB 080400Z 0804/0910 20009KT 9999 SCT250 WS015/26033KT QNH2970INS BECMG 0814/0815 23012G18KT 9999 SCT060 QNH2960INS TEMPO 0823/0902 VCTS BKN050CB TX30/0820Z TN16/0812Z